KRHI/RHI METAR and TAF weather

Enter ICAO airport designator
Station Type Date Time Source
KRHI METAR 2021/04/14 19:29 UTC NOAA

KRHI 141929Z AUTO 28009KT 9SM -RA BKN026 OVC034 04/00 A3000 RMK AO2 P0001 T00390000


Station Type Date Time Source
KRHI Decoded METAR 2021/04/14 19:29 UTC NOAA

RHINELANDER-ONEIDA CO AIRPORT , WI, United States (KRHI) 45-38N 89-29W 485M
Apr 14, 2021 - 03:29 PM EDT / 2021.04.14 1929 UTC
Wind: from the W (280 degrees) at 10 MPH (9 KT):0
Visibility: 9 mile(s):0
Sky conditions: overcast
Weather: light rain
Precipitation last hour: 0.01 inches
Temperature: 39.0 F (3.9 C)
Dew Point: 32.0 F (0.0 C)
Relative Humidity: 75%
Pressure (altimeter): 30 in. Hg (1015 hPa)
ob: KRHI 141929Z AUTO 28009KT 9SM -RA BKN026 OVC034 04/00 A3000 RMK AO2 P0001 T00390000
cycle: 19

Station Type Date Time Source
KRHI TAF 2021/04/14 18:36 UTC NOAA

TAF KRHI 141734Z 1418/1518 30008KT P6SM SCT017 OVC030
TEMPO 1418/1421 3SM -SHRASN BKN017
FM142100 32009G16KT P6SM -SHRASN OVC017
FM150100 34008G15KT P6SM -SHSN OVC015
FM151300 33007G16KT P6SM BKN013
FM151500 34009G17KT P6SM BKN025

Example: see airport list